• Join FlightAware (Why Join?)
  • Login
  • US Flag 
12:06AM EDT


 

Airport Tracker/Info


-or-


 

Live Flight TrackerFlight Track Log ✈ FLG3735 ✈ 07-May-2013 ✈ KDTW - KALB

Flight Track Log - Related Links

Times and Time Zones

All times are in EDT time to prevent confusion due to time zone crossing. See the FLG3735 flight status page for this flight to view local times or setup timezone preferences in your user account.

Time Position Orientation Groundspeed Altitude Reporting Facility
EDT Latitude Longitude Course Direction KTS MPH feet Rate Location/Type
10:12PM 42.1994 -83.3608 71° East 160 184 1,300  Level Cleveland Center
10:13PM 42.1556 -83.3617 181° South 210 242 2,600 1,680 Climbing Cleveland Center
10:14PM 42.1017 -83.3567 176° South 243 280 4,400 2,340 Climbing Cleveland Center
10:15PM 42.3046 -82.8102 75° East  Level FlightAware Approximate
10:15PM 42.1142 -83.2592 80° East 255 293 7,400  Level Cleveland Center
10:16PM 42.3244 -82.6734 82° East  Level FlightAware Approximate
10:16PM 42.1433 -83.1792 64° Northeast 249 287 9,800  Level Cleveland Center
10:17PM 42.3449 -82.5371 71° East  Level FlightAware Approximate
10:17PM 42.1767 -83.0769 66° East 274 315 11,400  Level Cleveland Center
10:18PM 42.2125 -82.9578 68° East 306 352 13,300 1,980 Climbing Cleveland Center
10:19PM 42.2550 -82.8219 67° East 340 391 15,400 1,920 Climbing Cleveland Center
10:20PM 42.2928 -82.6997 67° East 353 406 17,200 1,500 Climbing Cleveland Center
10:21PM 42.3325 -82.5689 68° East 353 406 18,500 1,320 Climbing Cleveland Center
10:22PM 42.3639 -82.4350 72° East 364 419 19,900 1,260 Climbing Cleveland Center
10:23PM 42.3600 -82.2917 92° East 364 419 21,100 1,200 Climbing Cleveland Center
10:24PM 42.3536 -82.1481 93° East 369 425 22,300 1,080 Climbing Cleveland Center
10:25PM 42.3556 -82.0019 89° East 386 444 23,300 900 Climbing Cleveland Center
10:26PM 42.3678 -81.8506 84° East 391 450 24,200 780 Climbing Cleveland Center
10:27PM 42.3817 -81.7019 83° East 391 450 24,900 660 Climbing Cleveland Center
10:28PM 42.3936 -81.5503 84° East 399 459 25,600 660 Climbing Cleveland Center
10:29PM 42.4053 -81.3986 84° East 405 466 26,300 660 Climbing Cleveland Center
10:30PM 42.4186 -81.2442 83° East 410 472 27,000 600 Climbing Cleveland Center
10:31PM 42.4278 -81.1064 85° East 410 472 27,600 600 Climbing Cleveland Center
10:32PM 42.4389 -80.9517 84° East 405 466 28,200 540 Climbing Cleveland Center
10:33PM 42.4517 -80.7997 83° East 410 472 28,700 360 Climbing Cleveland Center
10:34PM 42.4622 -80.6394 85° East 413 475 29,000 120 Climbing Cleveland Center
10:35PM 42.4747 -80.4847 84° East 418 481 29,000  Level Cleveland Center
10:36PM 42.4869 -80.3131 84° East 425 489 29,000  Level Cleveland Center
10:37PM 42.4969 -80.1522 85° East 425 489 29,000  Level Cleveland Center
10:38PM 42.5067 -79.9889 85° East 425 489 29,000  Level Cleveland Center
10:39PM 42.5203 -79.8422 83° East 425 489 29,000  Level Cleveland Center
10:40PM 42.5317 -79.6817 84° East 425 489 29,000  Level Cleveland Center
10:41PM 42.5408 -79.5208 86° East 425 489 29,000  Level Cleveland Center
10:42PM 42.5497 -79.3572 86° East 425 489 29,000  Level Cleveland Center
10:43PM 42.5603 -79.1936 85° East 425 489 29,000  Level Cleveland Center
10:44PM 42.5686 -79.0297 86° East 425 489 29,000  Level Cleveland Center
10:45PM 42.5789 -78.8661 85° East 425 489 29,000  Level Cleveland Center
10:46PM 42.5867 -78.7022 86° East 425 489 29,000  Level Cleveland Center
10:47PM 42.5964 -78.5383 85° East 430 495 29,000  Level Cleveland Center
10:48PM 42.6039 -78.3744 86° East 430 495 29,000  Level Cleveland Center
10:49PM 42.6131 -78.2106 86° East 430 495 29,000  Level Cleveland Center
10:50PM 42.6200 -78.0494 87° East 430 495 29,000  Level Cleveland Center
10:52PM 42.6389 -77.7081 86° East 422 486 29,000  Level Boston Center
10:53PM 42.6450 -77.5306 87° East 427 491 29,000  Level Boston Center
10:54PM 42.6500 -77.3642 88° East 427 491 29,000  Level Boston Center
10:55PM 42.6572 -77.2008 87° East 427 491 29,000  Level Boston Center
10:56PM 42.6639 -77.0375 87° East 427 491 29,000  Level Boston Center
10:57PM 42.6703 -76.8742 87° East 427 491 29,000  Level Boston Center
10:58PM 42.6767 -76.7108 87° East 432 497 29,000  Level Boston Center
10:59PM 42.6828 -76.5444 87° East 432 497 29,000  Level Boston Center
11:00PM 42.6906 -76.3811 86° East 432 497 29,000 -60 Level Boston Center
11:01PM 42.6956 -76.2317 87° East 437 503 28,900 -420 Descending Boston Center
11:02PM 42.7011 -76.0681 87° East 437 503 28,200 -1,140 Descending Boston Center
11:03PM 42.7042 -75.8986 89° East 437 503 26,700 -1,500 Descending Boston Center
11:04PM 42.7092 -75.7350 88° East 437 503 25,200 -1,500 Descending Boston Center
11:05PM 42.7139 -75.5656 88° East 437 503 23,700 -1,560 Descending Boston Center
11:06PM 42.7203 -75.4078 87° East 437 503 22,100 -1,800 Descending Boston Center
11:07PM 42.7222 -75.2494 89° East 431 496 20,100 -2,040 Descending Boston Center
11:08PM 42.7258 -75.0914 88° East 423 487 18,100 -1,980 Descending Boston Center
11:09PM 42.7294 -74.9389 88° East 411 473 16,200 -2,040 Descending Boston Center
11:10PM 42.7325 -74.7892 88° East 382 440 14,200 -2,100 Descending Boston Center
11:10PM 42.7314 -74.7467 92° East 368 423 13,600 -2,160 Descending Boston Center
11:11PM 42.7353 -74.6450 87° East 375 432 11,900 -2,100 Descending Boston Center
11:11PM 42.7358 -74.6197 88° East 339 390 11,500 -1,020 Descending Boston Center
11:12PM 42.7458 -74.5322 81° East 341 392 10,900 -600 Descending Boston Center
11:12PM 42.7486 -74.4956 84° East 312 359 10,900 -1,140 Level Boston Center
11:13PM 42.7606 -74.4169 78° East 296 341 9,800 -1,500 Descending Boston Center
11:13PM 42.7631 -74.3914 82° East 266 306 9,400 -1,740 Descending Boston Center
11:14PM 42.7706 -74.3181 82° East 269 310 8,100 -1,800 Descending Boston Center
11:14PM 42.7750 -74.2928 77° East 257 296 7,600 -1,740 Descending Boston Center
11:15PM 42.7803 -74.2250 84° East 255 293 6,400 -1,620 Descending Boston Center
11:15PM 42.7847 -74.1997 77° East 247 284 6,000 -1,500 Descending Boston Center
11:16PM 42.7922 -74.1319 81° East 250 288 4,900 -1,740 Descending Boston Center
11:16PM 42.7947 -74.1039 83° East 247 284 4,300 -1,500 Descending Boston Center
11:17PM 42.7994 -74.0503 83° East 250 288 3,400 -1,320 Descending Boston Center
11:17PM 42.8064 -74.0050 78° East 259 298 3,000 -420 Descending Boston Center
11:18PM 42.8111 -73.9600 82° East 250 288 3,000 -240 Level Boston Center
11:18PM 42.8139 -73.9231 84° East 211 243 2,800 -540 Descending Boston Center
11:19PM 42.8189 -73.8611 84° East 245 282 2,500 -840 Descending Boston Center
11:19PM 42.8231 -73.8528 56° Northeast 172 198 2,000 -840 Descending Boston Center
11:20PM 42.8069 -73.8069 116° Southeast 159 183 1,400 -600 Descending Boston Center